sensor_id;sensor_type;location;lat;lon;timestamp;P1;durP1;ratioP1;P2;durP2;ratioP2
72408;SDS011;60402;48.082;11.628;2023-08-31T00:02:15;3.50;;;1.67;;
72408;SDS011;60402;48.082;11.628;2023-08-31T00:05:01;3.35;;;1.70;;
72408;SDS011;60402;48.082;11.628;2023-08-31T00:07:46;3.70;;;1.95;;
72408;SDS011;60402;48.082;11.628;2023-08-31T00:10:33;2.63;;;1.70;;
72408;SDS011;60402;48.082;11.628;2023-08-31T00:13:21;3.38;;;2.05;;
72408;SDS011;60402;48.082;11.628;2023-08-31T00:16:07;4.10;;;1.77;;
72408;SDS011;60402;48.082;11.628;2023-08-31T00:18:55;3.03;;;1.80;;
72408;SDS011;60402;48.082;11.628;2023-08-31T00:21:42;3.05;;;1.70;;
72408;SDS011;60402;48.082;11.628;2023-08-31T00:24:28;2.55;;;1.63;;
72408;SDS011;60402;48.082;11.628;2023-08-31T00:27:18;3.10;;;1.70;;
72408;SDS011;60402;48.082;11.628;2023-08-31T00:30:06;3.45;;;1.90;;
72408;SDS011;60402;48.082;11.628;2023-08-31T00:32:54;2.95;;;1.65;;
72408;SDS011;60402;48.082;11.628;2023-08-31T00:35:39;3.70;;;2.00;;
72408;SDS011;60402;48.082;11.628;2023-08-31T00:38:30;4.45;;;2.15;;
72408;SDS011;60402;48.082;11.628;2023-08-31T00:41:16;3.45;;;1.88;;
72408;SDS011;60402;48.082;11.628;2023-08-31T00:44:02;3.65;;;1.60;;
72408;SDS011;60402;48.082;11.628;2023-08-31T00:46:51;3.97;;;2.22;;
72408;SDS011;60402;48.082;11.628;2023-08-31T00:49:37;3.40;;;1.92;;
72408;SDS011;60402;48.082;11.628;2023-08-31T00:52:23;4.55;;;2.15;;
72408;SDS011;60402;48.082;11.628;2023-08-31T00:55:10;3.90;;;1.90;;
72408;SDS011;60402;48.082;11.628;2023-08-31T00:57:56;3.28;;;1.90;;
72408;SDS011;60402;48.082;11.628;2023-08-31T01:00:50;3.42;;;1.92;;
72408;SDS011;60402;48.082;11.628;2023-08-31T01:13:51;4.25;;;1.95;;
72408;SDS011;60402;48.082;11.628;2023-08-31T01:16:43;3.47;;;1.95;;
72408;SDS011;60402;48.082;11.628;2023-08-31T01:19:47;3.35;;;1.90;;
72408;SDS011;60402;48.082;11.628;2023-08-31T01:25:48;4.07;;;1.88;;
72408;SDS011;60402;48.082;11.628;2023-08-31T01:28:35;3.63;;;1.92;;
72408;SDS011;60402;48.082;11.628;2023-08-31T01:31:20;3.30;;;1.70;;
72408;SDS011;60402;48.082;11.628;2023-08-31T01:34:07;3.63;;;1.98;;
72408;SDS011;60402;48.082;11.628;2023-08-31T01:36:55;3.38;;;2.10;;
72408;SDS011;60402;48.082;11.628;2023-08-31T01:39:49;4.72;;;2.03;;
72408;SDS011;60402;48.082;11.628;2023-08-31T01:42:42;3.38;;;1.90;;
72408;SDS011;60402;48.082;11.628;2023-08-31T01:45:28;4.55;;;2.10;;
72408;SDS011;60402;48.082;11.628;2023-08-31T01:48:15;3.22;;;2.00;;
72408;SDS011;60402;48.082;11.628;2023-08-31T01:51:01;3.10;;;1.80;;
72408;SDS011;60402;48.082;11.628;2023-08-31T01:53:47;4.10;;;1.90;;
72408;SDS011;60402;48.082;11.628;2023-08-31T01:56:32;3.70;;;1.88;;
72408;SDS011;60402;48.082;11.628;2023-08-31T01:59:18;4.47;;;2.22;;
72408;SDS011;60402;48.082;11.628;2023-08-31T02:02:04;3.25;;;1.70;;
72408;SDS011;60402;48.082;11.628;2023-08-31T02:04:49;3.35;;;1.70;;
72408;SDS011;60402;48.082;11.628;2023-08-31T02:10:25;3.97;;;2.03;;
72408;SDS011;60402;48.082;11.628;2023-08-31T02:13:13;4.55;;;2.03;;
72408;SDS011;60402;48.082;11.628;2023-08-31T02:16:00;5.10;;;2.38;;
72408;SDS011;60402;48.082;11.628;2023-08-31T02:18:46;3.72;;;1.80;;
72408;SDS011;60402;48.082;11.628;2023-08-31T02:21:32;3.85;;;2.10;;
72408;SDS011;60402;48.082;11.628;2023-08-31T02:24:17;3.53;;;1.90;;
72408;SDS011;60402;48.082;11.628;2023-08-31T02:27:03;5.97;;;2.83;;
72408;SDS011;60402;48.082;11.628;2023-08-31T02:29:49;3.45;;;2.00;;
72408;SDS011;60402;48.082;11.628;2023-08-31T02:32:34;4.20;;;1.95;;
72408;SDS011;60402;48.082;11.628;2023-08-31T02:35:20;3.85;;;1.90;;
72408;SDS011;60402;48.082;11.628;2023-08-31T02:38:06;4.07;;;1.98;;
72408;SDS011;60402;48.082;11.628;2023-08-31T02:40:52;5.05;;;2.10;;
72408;SDS011;60402;48.082;11.628;2023-08-31T02:43:38;4.68;;;1.80;;
72408;SDS011;60402;48.082;11.628;2023-08-31T02:46:24;4.32;;;2.08;;
72408;SDS011;60402;48.082;11.628;2023-08-31T02:49:10;4.40;;;2.20;;
72408;SDS011;60402;48.082;11.628;2023-08-31T02:51:55;5.20;;;2.28;;
72408;SDS011;60402;48.082;11.628;2023-08-31T02:54:41;4.82;;;2.35;;
72408;SDS011;60402;48.082;11.628;2023-08-31T02:57:27;4.72;;;2.10;;
72408;SDS011;60402;48.082;11.628;2023-08-31T03:00:12;5.03;;;2.60;;
72408;SDS011;60402;48.082;11.628;2023-08-31T03:02:58;5.15;;;2.58;;
72408;SDS011;60402;48.082;11.628;2023-08-31T03:05:44;4.88;;;2.28;;
72408;SDS011;60402;48.082;11.628;2023-08-31T03:08:30;4.57;;;2.20;;
72408;SDS011;60402;48.082;11.628;2023-08-31T03:11:16;4.85;;;2.38;;
72408;SDS011;60402;48.082;11.628;2023-08-31T03:14:01;3.95;;;2.00;;
72408;SDS011;60402;48.082;11.628;2023-08-31T03:16:47;3.63;;;1.83;;
72408;SDS011;60402;48.082;11.628;2023-08-31T03:19:34;4.28;;;1.90;;
72408;SDS011;60402;48.082;11.628;2023-08-31T03:22:19;3.45;;;1.77;;
72408;SDS011;60402;48.082;11.628;2023-08-31T03:25:05;3.28;;;1.50;;
72408;SDS011;60402;48.082;11.628;2023-08-31T03:27:51;3.90;;;1.60;;
72408;SDS011;60402;48.082;11.628;2023-08-31T03:30:37;2.75;;;1.55;;
72408;SDS011;60402;48.082;11.628;2023-08-31T03:33:22;3.42;;;1.45;;
72408;SDS011;60402;48.082;11.628;2023-08-31T03:36:08;2.78;;;1.40;;
72408;SDS011;60402;48.082;11.628;2023-08-31T03:38:54;2.75;;;1.33;;
72408;SDS011;60402;48.082;11.628;2023-08-31T03:41:39;3.78;;;1.48;;
72408;SDS011;60402;48.082;11.628;2023-08-31T03:44:25;2.90;;;1.55;;
72408;SDS011;60402;48.082;11.628;2023-08-31T03:47:11;2.42;;;1.48;;
72408;SDS011;60402;48.082;11.628;2023-08-31T03:49:56;3.67;;;1.50;;
72408;SDS011;60402;48.082;11.628;2023-08-31T03:52:42;3.60;;;1.45;;
72408;SDS011;60402;48.082;11.628;2023-08-31T03:55:28;4.88;;;1.77;;
72408;SDS011;60402;48.082;11.628;2023-08-31T03:58:13;3.85;;;1.83;;
72408;SDS011;60402;48.082;11.628;2023-08-31T04:00:59;5.05;;;2.10;;
72408;SDS011;60402;48.082;11.628;2023-08-31T04:03:45;2.95;;;1.70;;
72408;SDS011;60402;48.082;11.628;2023-08-31T04:06:30;3.20;;;1.55;;
72408;SDS011;60402;48.082;11.628;2023-08-31T04:09:16;2.35;;;1.33;;
72408;SDS011;60402;48.082;11.628;2023-08-31T04:12:02;2.85;;;1.48;;
72408;SDS011;60402;48.082;11.628;2023-08-31T04:14:48;3.35;;;1.63;;
72408;SDS011;60402;48.082;11.628;2023-08-31T04:17:34;3.00;;;1.45;;
72408;SDS011;60402;48.082;11.628;2023-08-31T04:20:20;2.70;;;1.30;;
72408;SDS011;60402;48.082;11.628;2023-08-31T04:23:05;3.67;;;1.83;;
72408;SDS011;60402;48.082;11.628;2023-08-31T04:25:51;3.53;;;1.60;;
72408;SDS011;60402;48.082;11.628;2023-08-31T04:28:39;4.50;;;1.70;;
72408;SDS011;60402;48.082;11.628;2023-08-31T04:31:25;3.35;;;1.50;;
72408;SDS011;60402;48.082;11.628;2023-08-31T04:34:11;6.25;;;2.10;;
72408;SDS011;60402;48.082;11.628;2023-08-31T04:36:56;3.50;;;1.70;;
72408;SDS011;60402;48.082;11.628;2023-08-31T04:39:42;4.45;;;1.90;;
72408;SDS011;60402;48.082;11.628;2023-08-31T04:42:27;3.95;;;1.67;;
72408;SDS011;60402;48.082;11.628;2023-08-31T04:45:13;4.57;;;1.88;;
72408;SDS011;60402;48.082;11.628;2023-08-31T04:47:59;4.00;;;1.90;;
72408;SDS011;60402;48.082;11.628;2023-08-31T04:50:44;4.95;;;2.13;;
72408;SDS011;60402;48.082;11.628;2023-08-31T04:53:30;4.45;;;2.08;;
72408;SDS011;60402;48.082;11.628;2023-08-31T04:56:16;4.57;;;2.00;;
72408;SDS011;60402;48.082;11.628;2023-08-31T04:59:02;4.88;;;2.10;;
72408;SDS011;60402;48.082;11.628;2023-08-31T05:01:48;4.60;;;2.03;;
72408;SDS011;60402;48.082;11.628;2023-08-31T05:04:34;5.65;;;2.38;;
72408;SDS011;60402;48.082;11.628;2023-08-31T05:07:19;3.20;;;1.75;;
72408;SDS011;60402;48.082;11.628;2023-08-31T05:10:05;3.63;;;1.90;;
72408;SDS011;60402;48.082;11.628;2023-08-31T05:12:52;4.97;;;1.83;;
72408;SDS011;60402;48.082;11.628;2023-08-31T05:15:37;5.18;;;2.08;;
72408;SDS011;60402;48.082;11.628;2023-08-31T05:18:23;3.67;;;1.90;;
72408;SDS011;60402;48.082;11.628;2023-08-31T05:21:09;3.53;;;1.67;;
72408;SDS011;60402;48.082;11.628;2023-08-31T05:23:54;4.82;;;1.80;;
72408;SDS011;60402;48.082;11.628;2023-08-31T05:26:40;3.80;;;2.08;;
72408;SDS011;60402;48.082;11.628;2023-08-31T05:29:26;4.78;;;1.90;;
72408;SDS011;60402;48.082;11.628;2023-08-31T05:32:11;4.05;;;2.10;;
72408;SDS011;60402;48.082;11.628;2023-08-31T05:34:57;3.97;;;2.20;;
72408;SDS011;60402;48.082;11.628;2023-08-31T05:37:44;5.82;;;2.30;;
72408;SDS011;60402;48.082;11.628;2023-08-31T05:40:30;4.10;;;2.10;;
72408;SDS011;60402;48.082;11.628;2023-08-31T05:43:16;4.10;;;1.80;;
72408;SDS011;60402;48.082;11.628;2023-08-31T05:46:02;3.65;;;1.80;;
72408;SDS011;60402;48.082;11.628;2023-08-31T05:48:48;3.78;;;1.77;;
72408;SDS011;60402;48.082;11.628;2023-08-31T05:51:34;4.07;;;2.05;;
72408;SDS011;60402;48.082;11.628;2023-08-31T05:54:19;4.50;;;2.15;;
72408;SDS011;60402;48.082;11.628;2023-08-31T05:57:05;4.32;;;2.10;;
72408;SDS011;60402;48.082;11.628;2023-08-31T05:59:51;4.50;;;2.17;;
72408;SDS011;60402;48.082;11.628;2023-08-31T06:02:36;3.50;;;1.88;;
72408;SDS011;60402;48.082;11.628;2023-08-31T06:05:22;4.32;;;2.10;;
72408;SDS011;60402;48.082;11.628;2023-08-31T06:08:08;4.53;;;2.17;;
72408;SDS011;60402;48.082;11.628;2023-08-31T06:10:53;3.90;;;2.15;;
72408;SDS011;60402;48.082;11.628;2023-08-31T06:13:39;5.20;;;2.20;;
72408;SDS011;60402;48.082;11.628;2023-08-31T06:16:25;5.05;;;2.10;;
72408;SDS011;60402;48.082;11.628;2023-08-31T06:19:11;4.32;;;2.28;;
72408;SDS011;60402;48.082;11.628;2023-08-31T06:22:00;5.80;;;2.20;;
72408;SDS011;60402;48.082;11.628;2023-08-31T06:24:46;3.05;;;1.50;;
72408;SDS011;60402;48.082;11.628;2023-08-31T06:27:31;4.32;;;2.10;;
72408;SDS011;60402;48.082;11.628;2023-08-31T06:30:17;3.70;;;1.90;;
72408;SDS011;60402;48.082;11.628;2023-08-31T06:33:04;5.00;;;2.13;;
72408;SDS011;60402;48.082;11.628;2023-08-31T06:35:50;5.10;;;2.08;;
72408;SDS011;60402;48.082;11.628;2023-08-31T06:38:37;5.32;;;1.92;;
72408;SDS011;60402;48.082;11.628;2023-08-31T06:41:22;5.97;;;1.98;;
72408;SDS011;60402;48.082;11.628;2023-08-31T06:44:08;3.92;;;1.90;;
72408;SDS011;60402;48.082;11.628;2023-08-31T06:46:54;4.50;;;2.25;;
72408;SDS011;60402;48.082;11.628;2023-08-31T06:49:40;3.70;;;2.15;;
72408;SDS011;60402;48.082;11.628;2023-08-31T06:52:26;3.42;;;1.90;;
72408;SDS011;60402;48.082;11.628;2023-08-31T06:55:12;3.03;;;1.67;;
72408;SDS011;60402;48.082;11.628;2023-08-31T06:57:58;4.07;;;2.00;;
72408;SDS011;60402;48.082;11.628;2023-08-31T07:00:43;4.03;;;1.95;;
72408;SDS011;60402;48.082;11.628;2023-08-31T07:03:29;3.63;;;1.80;;
72408;SDS011;60402;48.082;11.628;2023-08-31T07:06:15;4.15;;;1.90;;
72408;SDS011;60402;48.082;11.628;2023-08-31T07:09:00;3.45;;;1.60;;
72408;SDS011;60402;48.082;11.628;2023-08-31T07:11:46;3.30;;;1.80;;
72408;SDS011;60402;48.082;11.628;2023-08-31T07:14:32;4.82;;;1.80;;
72408;SDS011;60402;48.082;11.628;2023-08-31T07:17:18;3.97;;;1.63;;
72408;SDS011;60402;48.082;11.628;2023-08-31T07:20:04;4.35;;;1.80;;
72408;SDS011;60402;48.082;11.628;2023-08-31T07:22:54;4.22;;;1.70;;
72408;SDS011;60402;48.082;11.628;2023-08-31T07:25:40;4.32;;;2.00;;
72408;SDS011;60402;48.082;11.628;2023-08-31T07:28:26;4.07;;;1.75;;
72408;SDS011;60402;48.082;11.628;2023-08-31T07:31:12;3.47;;;1.98;;
72408;SDS011;60402;48.082;11.628;2023-08-31T07:33:58;6.07;;;1.73;;
72408;SDS011;60402;48.082;11.628;2023-08-31T07:36:43;3.95;;;1.65;;
72408;SDS011;60402;48.082;11.628;2023-08-31T07:39:29;3.55;;;1.70;;
72408;SDS011;60402;48.082;11.628;2023-08-31T07:42:15;3.22;;;1.55;;
72408;SDS011;60402;48.082;11.628;2023-08-31T07:45:00;3.42;;;1.63;;
72408;SDS011;60402;48.082;11.628;2023-08-31T07:47:46;3.85;;;1.85;;
72408;SDS011;60402;48.082;11.628;2023-08-31T07:50:32;3.20;;;1.80;;
72408;SDS011;60402;48.082;11.628;2023-08-31T07:53:19;3.47;;;1.67;;
72408;SDS011;60402;48.082;11.628;2023-08-31T07:56:05;4.53;;;2.00;;
72408;SDS011;60402;48.082;11.628;2023-08-31T07:58:51;4.20;;;2.10;;
72408;SDS011;60402;48.082;11.628;2023-08-31T08:01:36;3.88;;;1.60;;
72408;SDS011;60402;48.082;11.628;2023-08-31T08:04:22;2.55;;;1.50;;
72408;SDS011;60402;48.082;11.628;2023-08-31T08:07:09;4.18;;;1.77;;
72408;SDS011;60402;48.082;11.628;2023-08-31T08:09:54;5.32;;;1.80;;
72408;SDS011;60402;48.082;11.628;2023-08-31T08:12:40;3.97;;;1.83;;
72408;SDS011;60402;48.082;11.628;2023-08-31T08:15:30;4.00;;;1.60;;
72408;SDS011;60402;48.082;11.628;2023-08-31T08:18:16;3.47;;;1.40;;
72408;SDS011;60402;48.082;11.628;2023-08-31T08:21:01;4.18;;;1.60;;
72408;SDS011;60402;48.082;11.628;2023-08-31T08:23:47;5.28;;;1.75;;
72408;SDS011;60402;48.082;11.628;2023-08-31T08:26:36;3.67;;;1.52;;
72408;SDS011;60402;48.082;11.628;2023-08-31T08:29:21;4.30;;;1.60;;
72408;SDS011;60402;48.082;11.628;2023-08-31T08:32:07;3.92;;;1.60;;
72408;SDS011;60402;48.082;11.628;2023-08-31T08:34:54;4.50;;;1.45;;
72408;SDS011;60402;48.082;11.628;2023-08-31T08:37:40;3.17;;;1.20;;
72408;SDS011;60402;48.082;11.628;2023-08-31T08:40:25;3.63;;;1.30;;
72408;SDS011;60402;48.082;11.628;2023-08-31T08:43:11;4.57;;;1.52;;
72408;SDS011;60402;48.082;11.628;2023-08-31T08:46:00;3.55;;;1.38;;
72408;SDS011;60402;48.082;11.628;2023-08-31T08:48:50;2.58;;;1.27;;
72408;SDS011;60402;48.082;11.628;2023-08-31T08:51:36;2.63;;;1.30;;
72408;SDS011;60402;48.082;11.628;2023-08-31T08:54:22;3.63;;;1.30;;
72408;SDS011;60402;48.082;11.628;2023-08-31T08:57:08;4.50;;;1.30;;
72408;SDS011;60402;48.082;11.628;2023-08-31T08:59:53;3.47;;;1.30;;
72408;SDS011;60402;48.082;11.628;2023-08-31T09:02:39;2.90;;;1.30;;
72408;SDS011;60402;48.082;11.628;2023-08-31T09:05:25;3.95;;;1.30;;
72408;SDS011;60402;48.082;11.628;2023-08-31T09:08:11;1.90;;;1.10;;
72408;SDS011;60402;48.082;11.628;2023-08-31T09:11:00;3.45;;;1.30;;
72408;SDS011;60402;48.082;11.628;2023-08-31T09:13:46;3.20;;;1.20;;
72408;SDS011;60402;48.082;11.628;2023-08-31T09:16:32;4.50;;;1.85;;
72408;SDS011;60402;48.082;11.628;2023-08-31T09:19:24;3.33;;;1.30;;
72408;SDS011;60402;48.082;11.628;2023-08-31T09:22:13;2.08;;;1.10;;
72408;SDS011;60402;48.082;11.628;2023-08-31T09:24:58;2.33;;;1.23;;
72408;SDS011;60402;48.082;11.628;2023-08-31T09:27:44;3.85;;;1.35;;
72408;SDS011;60402;48.082;11.628;2023-08-31T09:30:34;2.50;;;1.20;;
72408;SDS011;60402;48.082;11.628;2023-08-31T09:33:23;5.00;;;1.40;;
72408;SDS011;60402;48.082;11.628;2023-08-31T09:36:08;3.60;;;1.10;;
72408;SDS011;60402;48.082;11.628;2023-08-31T09:39:03;2.50;;;1.23;;
72408;SDS011;60402;48.082;11.628;2023-08-31T09:41:54;4.90;;;1.60;;
72408;SDS011;60402;48.082;11.628;2023-08-31T09:44:42;3.40;;;1.40;;
72408;SDS011;60402;48.082;11.628;2023-08-31T09:47:28;3.95;;;1.40;;
72408;SDS011;60402;48.082;11.628;2023-08-31T09:50:14;3.47;;;1.38;;
72408;SDS011;60402;48.082;11.628;2023-08-31T09:53:01;3.40;;;1.30;;
72408;SDS011;60402;48.082;11.628;2023-08-31T09:55:49;2.17;;;1.25;;
72408;SDS011;60402;48.082;11.628;2023-08-31T09:58:36;3.83;;;1.40;;
72408;SDS011;60402;48.082;11.628;2023-08-31T10:01:22;3.13;;;1.40;;
72408;SDS011;60402;48.082;11.628;2023-08-31T10:04:08;2.83;;;1.50;;
72408;SDS011;60402;48.082;11.628;2023-08-31T10:06:54;3.63;;;1.50;;
72408;SDS011;60402;48.082;11.628;2023-08-31T10:09:40;2.90;;;1.20;;
72408;SDS011;60402;48.082;11.628;2023-08-31T10:12:26;2.55;;;1.25;;
72408;SDS011;60402;48.082;11.628;2023-08-31T10:15:12;3.65;;;1.63;;
72408;SDS011;60402;48.082;11.628;2023-08-31T10:17:59;3.42;;;1.20;;
72408;SDS011;60402;48.082;11.628;2023-08-31T10:20:46;2.42;;;1.42;;
72408;SDS011;60402;48.082;11.628;2023-08-31T10:23:32;3.88;;;1.25;;
72408;SDS011;60402;48.082;11.628;2023-08-31T10:26:28;2.92;;;1.20;;
72408;SDS011;60402;48.082;11.628;2023-08-31T10:29:25;3.35;;;1.10;;
72408;SDS011;60402;48.082;11.628;2023-08-31T10:32:19;2.90;;;1.40;;
72408;SDS011;60402;48.082;11.628;2023-08-31T10:35:05;3.13;;;1.20;;
72408;SDS011;60402;48.082;11.628;2023-08-31T10:37:52;4.57;;;1.50;;
72408;SDS011;60402;48.082;11.628;2023-08-31T10:41:19;2.42;;;1.10;;
72408;SDS011;60402;48.082;11.628;2023-08-31T10:44:18;3.85;;;1.20;;
72408;SDS011;60402;48.082;11.628;2023-08-31T10:47:05;2.22;;;1.02;;
72408;SDS011;60402;48.082;11.628;2023-08-31T10:49:51;2.05;;;1.02;;
72408;SDS011;60402;48.082;11.628;2023-08-31T10:52:42;1.90;;;1.10;;
72408;SDS011;60402;48.082;11.628;2023-08-31T10:55:31;3.58;;;1.50;;
72408;SDS011;60402;48.082;11.628;2023-08-31T10:58:17;2.67;;;1.38;;
72408;SDS011;60402;48.082;11.628;2023-08-31T11:01:02;2.60;;;1.10;;
72408;SDS011;60402;48.082;11.628;2023-08-31T11:03:58;2.58;;;1.33;;
72408;SDS011;60402;48.082;11.628;2023-08-31T11:06:44;2.80;;;1.20;;
72408;SDS011;60402;48.082;11.628;2023-08-31T11:09:29;3.63;;;1.20;;
72408;SDS011;60402;48.082;11.628;2023-08-31T11:12:16;2.90;;;1.13;;
72408;SDS011;60402;48.082;11.628;2023-08-31T11:15:02;3.63;;;1.35;;
72408;SDS011;60402;48.082;11.628;2023-08-31T11:17:52;2.10;;;1.10;;
72408;SDS011;60402;48.082;11.628;2023-08-31T11:20:39;2.65;;;1.20;;
72408;SDS011;60402;48.082;11.628;2023-08-31T11:23:25;3.90;;;1.40;;
72408;SDS011;60402;48.082;11.628;2023-08-31T11:26:10;3.40;;;1.30;;
72408;SDS011;60402;48.082;11.628;2023-08-31T11:28:56;3.65;;;1.30;;
72408;SDS011;60402;48.082;11.628;2023-08-31T11:31:42;2.47;;;1.10;;
72408;SDS011;60402;48.082;11.628;2023-08-31T11:34:28;2.55;;;1.20;;
72408;SDS011;60402;48.082;11.628;2023-08-31T11:37:14;3.28;;;1.17;;
72408;SDS011;60402;48.082;11.628;2023-08-31T11:40:01;4.20;;;1.48;;
72408;SDS011;60402;48.082;11.628;2023-08-31T11:42:49;3.63;;;1.38;;
72408;SDS011;60402;48.082;11.628;2023-08-31T11:45:36;4.20;;;2.03;;
72408;SDS011;60402;48.082;11.628;2023-08-31T11:48:23;4.88;;;1.50;;
72408;SDS011;60402;48.082;11.628;2023-08-31T11:51:10;4.82;;;1.70;;
72408;SDS011;60402;48.082;11.628;2023-08-31T11:53:57;5.32;;;2.03;;
72408;SDS011;60402;48.082;11.628;2023-08-31T11:56:45;6.60;;;2.53;;
72408;SDS011;60402;48.082;11.628;2023-08-31T11:59:34;5.13;;;2.70;;
72408;SDS011;60402;48.082;11.628;2023-08-31T12:02:23;5.38;;;1.88;;
72408;SDS011;60402;48.082;11.628;2023-08-31T12:05:08;5.18;;;2.53;;
72408;SDS011;60402;48.082;11.628;2023-08-31T12:07:55;5.70;;;1.70;;
72408;SDS011;60402;48.082;11.628;2023-08-31T12:10:41;3.53;;;1.60;;
72408;SDS011;60402;48.082;11.628;2023-08-31T12:13:27;4.55;;;1.60;;
72408;SDS011;60402;48.082;11.628;2023-08-31T12:16:14;4.43;;;1.70;;
72408;SDS011;60402;48.082;11.628;2023-08-31T12:19:04;3.38;;;1.40;;
72408;SDS011;60402;48.082;11.628;2023-08-31T12:21:50;4.28;;;1.50;;
72408;SDS011;60402;48.082;11.628;2023-08-31T12:24:39;4.53;;;1.42;;
72408;SDS011;60402;48.082;11.628;2023-08-31T12:27:28;5.45;;;1.63;;
72408;SDS011;60402;48.082;11.628;2023-08-31T12:30:15;4.53;;;1.60;;
72408;SDS011;60402;48.082;11.628;2023-08-31T12:33:00;4.03;;;1.77;;
72408;SDS011;60402;48.082;11.628;2023-08-31T12:35:46;7.85;;;1.85;;
72408;SDS011;60402;48.082;11.628;2023-08-31T12:38:32;3.63;;;1.50;;
72408;SDS011;60402;48.082;11.628;2023-08-31T12:41:18;4.65;;;1.83;;
72408;SDS011;60402;48.082;11.628;2023-08-31T12:44:06;4.60;;;1.75;;
72408;SDS011;60402;48.082;11.628;2023-08-31T12:46:52;2.70;;;1.30;;
72408;SDS011;60402;48.082;11.628;2023-08-31T12:49:39;2.55;;;1.50;;
72408;SDS011;60402;48.082;11.628;2023-08-31T12:52:25;4.25;;;1.48;;
72408;SDS011;60402;48.082;11.628;2023-08-31T12:55:11;4.35;;;1.30;;
72408;SDS011;60402;48.082;11.628;2023-08-31T12:57:57;5.03;;;1.60;;
72408;SDS011;60402;48.082;11.628;2023-08-31T13:00:43;5.55;;;1.50;;
72408;SDS011;60402;48.082;11.628;2023-08-31T13:03:29;3.85;;;1.52;;
72408;SDS011;60402;48.082;11.628;2023-08-31T13:06:14;3.97;;;1.33;;
72408;SDS011;60402;48.082;11.628;2023-08-31T13:09:01;4.78;;;1.58;;
72408;SDS011;60402;48.082;11.628;2023-08-31T13:11:48;3.90;;;1.30;;
72408;SDS011;60402;48.082;11.628;2023-08-31T13:14:34;2.38;;;1.20;;
72408;SDS011;60402;48.082;11.628;2023-08-31T13:17:20;3.08;;;1.30;;
72408;SDS011;60402;48.082;11.628;2023-08-31T13:20:06;4.15;;;1.25;;
72408;SDS011;60402;48.082;11.628;2023-08-31T13:22:53;4.53;;;1.52;;
72408;SDS011;60402;48.082;11.628;2023-08-31T13:25:39;4.03;;;1.25;;
72408;SDS011;60402;48.082;11.628;2023-08-31T13:28:25;4.18;;;1.15;;
72408;SDS011;60402;48.082;11.628;2023-08-31T13:31:10;3.35;;;1.45;;
72408;SDS011;60402;48.082;11.628;2023-08-31T13:33:57;4.63;;;1.38;;
72408;SDS011;60402;48.082;11.628;2023-08-31T13:36:42;3.83;;;1.38;;
72408;SDS011;60402;48.082;11.628;2023-08-31T13:39:29;3.95;;;1.30;;
72408;SDS011;60402;48.082;11.628;2023-08-31T13:42:15;6.03;;;1.30;;
72408;SDS011;60402;48.082;11.628;2023-08-31T13:45:01;4.07;;;1.38;;
72408;SDS011;60402;48.082;11.628;2023-08-31T13:47:48;4.93;;;1.70;;
72408;SDS011;60402;48.082;11.628;2023-08-31T13:50:34;4.90;;;1.40;;
72408;SDS011;60402;48.082;11.628;2023-08-31T13:53:20;6.03;;;1.55;;
72408;SDS011;60402;48.082;11.628;2023-08-31T13:56:05;4.75;;;1.42;;
72408;SDS011;60402;48.082;11.628;2023-08-31T13:58:51;3.63;;;1.50;;
72408;SDS011;60402;48.082;11.628;2023-08-31T14:01:37;3.97;;;1.50;;
72408;SDS011;60402;48.082;11.628;2023-08-31T14:04:23;5.30;;;1.40;;
72408;SDS011;60402;48.082;11.628;2023-08-31T14:07:09;3.83;;;1.40;;
72408;SDS011;60402;48.082;11.628;2023-08-31T14:09:54;3.03;;;1.48;;
72408;SDS011;60402;48.082;11.628;2023-08-31T14:12:41;5.43;;;1.60;;
72408;SDS011;60402;48.082;11.628;2023-08-31T14:15:27;4.47;;;1.63;;
72408;SDS011;60402;48.082;11.628;2023-08-31T14:18:13;5.72;;;1.52;;
72408;SDS011;60402;48.082;11.628;2023-08-31T14:20:59;3.15;;;1.40;;
72408;SDS011;60402;48.082;11.628;2023-08-31T14:23:46;3.47;;;1.42;;
72408;SDS011;60402;48.082;11.628;2023-08-31T14:26:31;4.25;;;1.60;;
72408;SDS011;60402;48.082;11.628;2023-08-31T14:29:17;3.08;;;1.33;;
72408;SDS011;60402;48.082;11.628;2023-08-31T14:32:03;6.50;;;1.48;;
72408;SDS011;60402;48.082;11.628;2023-08-31T14:34:48;4.28;;;1.48;;
72408;SDS011;60402;48.082;11.628;2023-08-31T14:37:34;4.93;;;1.67;;
72408;SDS011;60402;48.082;11.628;2023-08-31T14:40:20;4.10;;;1.27;;
72408;SDS011;60402;48.082;11.628;2023-08-31T14:43:05;4.10;;;1.58;;
72408;SDS011;60402;48.082;11.628;2023-08-31T14:45:51;5.05;;;1.40;;
72408;SDS011;60402;48.082;11.628;2023-08-31T14:48:37;3.28;;;1.20;;
72408;SDS011;60402;48.082;11.628;2023-08-31T14:51:22;4.60;;;1.42;;
72408;SDS011;60402;48.082;11.628;2023-08-31T14:54:08;4.88;;;1.45;;
72408;SDS011;60402;48.082;11.628;2023-08-31T14:56:54;4.22;;;1.27;;
72408;SDS011;60402;48.082;11.628;2023-08-31T14:59:39;5.50;;;1.67;;
72408;SDS011;60402;48.082;11.628;2023-08-31T15:02:25;4.68;;;1.50;;
72408;SDS011;60402;48.082;11.628;2023-08-31T15:05:11;2.85;;;1.30;;
72408;SDS011;60402;48.082;11.628;2023-08-31T15:07:56;4.03;;;1.40;;
72408;SDS011;60402;48.082;11.628;2023-08-31T15:10:42;4.60;;;1.45;;
72408;SDS011;60402;48.082;11.628;2023-08-31T15:13:28;2.60;;;1.20;;
72408;SDS011;60402;48.082;11.628;2023-08-31T15:16:13;3.05;;;1.17;;
72408;SDS011;60402;48.082;11.628;2023-08-31T15:18:59;3.63;;;1.60;;
72408;SDS011;60402;48.082;11.628;2023-08-31T15:21:46;4.60;;;1.48;;
72408;SDS011;60402;48.082;11.628;2023-08-31T15:24:31;5.05;;;1.52;;
72408;SDS011;60402;48.082;11.628;2023-08-31T15:27:17;3.63;;;1.40;;
72408;SDS011;60402;48.082;11.628;2023-08-31T15:30:04;3.85;;;1.40;;
72408;SDS011;60402;48.082;11.628;2023-08-31T15:32:52;4.32;;;1.30;;
72408;SDS011;60402;48.082;11.628;2023-08-31T15:35:38;5.55;;;1.35;;
72408;SDS011;60402;48.082;11.628;2023-08-31T15:38:24;3.80;;;1.45;;
72408;SDS011;60402;48.082;11.628;2023-08-31T15:41:12;4.57;;;1.42;;
72408;SDS011;60402;48.082;11.628;2023-08-31T15:43:58;3.22;;;1.48;;
72408;SDS011;60402;48.082;11.628;2023-08-31T15:46:44;2.60;;;1.23;;
72408;SDS011;60402;48.082;11.628;2023-08-31T15:49:30;5.85;;;1.60;;
72408;SDS011;60402;48.082;11.628;2023-08-31T15:52:15;3.00;;;1.40;;
72408;SDS011;60402;48.082;11.628;2023-08-31T15:55:02;3.75;;;1.10;;
72408;SDS011;60402;48.082;11.628;2023-08-31T15:57:49;5.50;;;1.30;;
72408;SDS011;60402;48.082;11.628;2023-08-31T16:00:35;3.60;;;1.33;;
72408;SDS011;60402;48.082;11.628;2023-08-31T16:03:22;3.08;;;1.35;;
72408;SDS011;60402;48.082;11.628;2023-08-31T16:06:07;3.85;;;1.58;;
72408;SDS011;60402;48.082;11.628;2023-08-31T16:08:58;6.47;;;1.50;;
72408;SDS011;60402;48.082;11.628;2023-08-31T16:11:44;4.70;;;1.30;;
72408;SDS011;60402;48.082;11.628;2023-08-31T16:14:29;4.03;;;1.42;;
72408;SDS011;60402;48.082;11.628;2023-08-31T16:17:15;3.63;;;1.30;;
72408;SDS011;60402;48.082;11.628;2023-08-31T16:20:01;3.58;;;1.40;;
72408;SDS011;60402;48.082;11.628;2023-08-31T16:22:46;3.72;;;1.48;;
72408;SDS011;60402;48.082;11.628;2023-08-31T16:25:32;3.40;;;1.17;;
72408;SDS011;60402;48.082;11.628;2023-08-31T16:28:18;4.20;;;1.25;;
72408;SDS011;60402;48.082;11.628;2023-08-31T16:31:03;5.45;;;1.50;;
72408;SDS011;60402;48.082;11.628;2023-08-31T16:33:49;6.35;;;1.38;;
72408;SDS011;60402;48.082;11.628;2023-08-31T16:36:35;4.35;;;1.27;;
72408;SDS011;60402;48.082;11.628;2023-08-31T16:39:20;4.07;;;1.63;;
72408;SDS011;60402;48.082;11.628;2023-08-31T16:42:06;3.67;;;1.67;;
72408;SDS011;60402;48.082;11.628;2023-08-31T16:44:52;6.05;;;1.70;;